Time;durP1;ratioP1;P1;durP2;ratioP2;P2;SDS_P1;SDS_P2;PMS_P1;PMS_P2;Temp;Humidity;BMP_temperature;BMP_pressure;BME280_temperature;BME280_humidity;BME280_pressure;Samples;Min_cycle;Max_cycle;Signal;HPM_P1;HPM_P2
2021/06/21 00:02:06;;;;;;;10.27;3.63;;;17.00;99.90;;;;;;5061589;28;20677;-90
2021/06/21 00:04:33;;;;;;;6.97;2.80;;;17.00;99.90;;;;;;5063066;28;20629;-92
2021/06/21 00:06:59;;;;;;;9.47;3.30;;;17.00;99.90;;;;;;5040433;28;20630;-91
2021/06/21 00:09:28;;;;;;;7.60;3.23;;;17.10;99.90;;;;;;5062651;28;20630;-92
2021/06/21 00:11:55;;;;;;;7.60;3.60;;;17.00;99.90;;;;;;5062605;28;20761;-91
2021/06/21 00:14:21;;;;;;;8.73;3.93;;;17.10;99.90;;;;;;5064123;28;21003;-94
2021/06/21 00:16:49;;;;;;;8.73;2.93;;;17.30;99.90;;;;;;5061718;28;20645;-91
2021/06/21 00:19:17;;;;;;;10.03;2.93;;;17.30;99.90;;;;;;5063745;28;20616;-91
2021/06/21 00:21:44;;;;;;;11.07;3.10;;;17.20;99.90;;;;;;5062289;28;20683;-93
2021/06/21 00:24:10;;;;;;;5.00;2.67;;;17.10;99.90;;;;;;5060302;28;20632;-91
2021/06/21 00:26:39;;;;;;;9.80;2.60;;;17.20;99.90;;;;;;5062225;28;20625;-91
2021/06/21 00:29:06;;;;;;;6.90;2.83;;;17.40;99.90;;;;;;5059934;28;20660;-91
2021/06/21 00:31:33;;;;;;;5.37;2.67;;;17.30;99.90;;;;;;5063133;28;20664;-91
2021/06/21 00:34:00;;;;;;;7.53;3.20;;;17.30;99.90;;;;;;5059257;28;21078;-90
2021/06/21 00:36:27;;;;;;;6.83;2.67;;;17.20;99.90;;;;;;5060951;28;21167;-90
2021/06/21 00:38:53;;;;;;;5.83;2.80;;;17.10;99.90;;;;;;5059386;28;20639;-90
2021/06/21 00:41:20;;;;;;;6.43;2.80;;;17.10;99.90;;;;;;5060916;28;20657;-90
2021/06/21 00:43:48;;;;;;;5.67;2.30;;;17.10;99.90;;;;;;5055601;28;20992;-90
2021/06/21 00:46:15;;;;;;;10.33;3.07;;;17.10;99.90;;;;;;5058568;28;20616;-92
2021/06/21 00:48:42;;;;;;;7.00;3.00;;;17.10;99.90;;;;;;5054299;28;20633;-90
2021/06/21 00:51:10;;;;;;;4.87;2.60;;;17.10;99.90;;;;;;5060096;28;20777;-90
2021/06/21 00:53:37;;;;;;;5.13;2.10;;;17.10;99.90;;;;;;5061584;28;20679;-89
2021/06/21 00:56:05;;;;;;;8.83;2.60;;;17.00;99.90;;;;;;5052601;28;20632;-92
2021/06/21 00:58:32;;;;;;;7.30;2.90;;;17.00;99.90;;;;;;5058445;28;20652;-92
2021/06/21 01:01:00;;;;;;;4.43;2.37;;;16.90;99.90;;;;;;5058591;28;20660;-92
2021/06/21 01:03:27;;;;;;;6.33;2.50;;;17.00;99.90;;;;;;5060944;28;20633;-91
2021/06/21 01:05:54;;;;;;;5.90;2.70;;;17.00;99.90;;;;;;5062717;28;20641;-91
2021/06/21 01:08:21;;;;;;;10.07;2.63;;;17.00;99.90;;;;;;5060178;28;21003;-91
2021/06/21 01:10:51;;;;;;;9.37;2.97;;;17.00;99.90;;;;;;5059456;28;20673;-91
2021/06/21 01:13:51;;;;;;;12.87;3.27;;;16.90;99.90;;;;;;5062651;28;20744;-93
2021/06/21 01:16:24;;;;;;;4.90;2.33;;;17.00;99.90;;;;;;5062266;28;20635;-92
2021/06/21 01:18:58;;;;;;;5.03;2.10;;;17.00;99.90;;;;;;5063323;28;20783;-92
2021/06/21 01:21:52;;;;;;;7.30;2.57;;;17.00;99.90;;;;;;5064144;28;21223;-91
2021/06/21 01:24:59;;;;;;;7.83;2.63;;;17.00;99.90;;;;;;5059909;28;20757;-91
2021/06/21 01:27:49;;;;;;;3.57;2.07;;;17.00;99.90;;;;;;5058817;28;20631;-92
2021/06/21 01:30:19;;;;;;;6.60;2.37;;;16.90;99.90;;;;;;5062252;28;20645;-91
2021/06/21 01:32:49;;;;;;;5.70;2.40;;;16.90;99.90;;;;;;5064200;28;20993;-91
2021/06/21 01:35:23;;;;;;;6.20;2.40;;;16.90;99.90;;;;;;5062125;28;21097;-92
2021/06/21 01:37:54;;;;;;;5.20;2.40;;;16.90;99.90;;;;;;5058494;28;20879;-92
2021/06/21 01:40:23;;;;;;;9.50;3.80;;;17.00;99.90;;;;;;5061208;28;20657;-92
2021/06/21 01:42:55;;;;;;;7.80;2.63;;;16.90;99.90;;;;;;5061800;28;21218;-91
2021/06/21 01:45:22;;;;;;;3.90;2.80;;;16.90;99.90;;;;;;5062910;28;20643;-92
2021/06/21 01:47:53;;;;;;;6.27;2.37;;;16.90;99.90;;;;;;5057907;28;20633;-91
2021/06/21 01:50:22;;;;;;;7.30;1.90;;;16.80;99.90;;;;;;5061904;28;20667;-91
2021/06/21 01:52:55;;;;;;;5.70;1.90;;;16.80;99.90;;;;;;5061994;28;20648;-92
2021/06/21 01:55:24;;;;;;;10.03;2.80;;;16.80;99.90;;;;;;5063129;28;20633;-92
2021/06/21 01:57:53;;;;;;;3.80;2.37;;;16.90;99.90;;;;;;5061941;28;20663;-92
2021/06/21 02:00:21;;;;;;;5.63;2.27;;;16.90;99.90;;;;;;5060628;28;20644;-92
2021/06/21 02:02:53;;;;;;;4.67;2.13;;;16.90;99.90;;;;;;5061769;28;20613;-92
2021/06/21 02:05:22;;;;;;;7.67;2.37;;;17.00;99.90;;;;;;5063369;28;20621;-92
2021/06/21 02:07:51;;;;;;;6.97;2.23;;;16.90;99.90;;;;;;5062443;28;20691;-93
2021/06/21 02:10:19;;;;;;;7.70;2.10;;;17.00;99.90;;;;;;5059905;28;20632;-92
2021/06/21 02:12:49;;;;;;;12.30;3.07;;;16.90;99.90;;;;;;5061590;28;20632;-92
2021/06/21 02:15:17;;;;;;;11.83;3.30;;;17.00;99.90;;;;;;5064264;28;20989;-91
2021/06/21 02:17:44;;;;;;;8.80;3.10;;;16.90;99.90;;;;;;5059879;28;20673;-92
2021/06/21 02:20:15;;;;;;;5.83;2.50;;;17.00;99.90;;;;;;5063051;28;20610;-92
2021/06/21 02:22:42;;;;;;;9.07;3.10;;;16.80;99.90;;;;;;5061087;28;20727;-92
2021/06/21 02:25:12;;;;;;;5.83;2.27;;;16.90;99.90;;;;;;5062400;28;20609;-93
2021/06/21 02:27:40;;;;;;;6.47;2.40;;;16.90;99.90;;;;;;5061654;28;20645;-92
2021/06/21 02:30:11;;;;;;;7.00;2.07;;;16.90;99.90;;;;;;5064317;28;20637;-93
2021/06/21 02:32:39;;;;;;;4.30;2.90;;;16.80;99.90;;;;;;5062771;28;20615;-91
2021/06/21 02:35:14;;;;;;;5.20;2.40;;;16.80;99.90;;;;;;5058508;28;21363;-91
2021/06/21 02:37:41;;;;;;;8.13;2.30;;;16.80;99.90;;;;;;5059216;28;20683;-91
2021/06/21 02:40:11;;;;;;;8.53;2.60;;;16.80;99.90;;;;;;5057329;28;20586;-91
2021/06/21 02:42:38;;;;;;;7.87;2.97;;;16.80;99.90;;;;;;5061383;28;20665;-92
2021/06/21 02:45:06;;;;;;;5.27;2.70;;;16.80;99.90;;;;;;5058837;28;20651;-92
2021/06/21 02:47:33;;;;;;;11.27;2.67;;;16.80;99.90;;;;;;5054873;28;20672;-91
2021/06/21 02:50:00;;;;;;;10.47;2.83;;;16.80;99.90;;;;;;5056255;28;20629;-92
2021/06/21 02:52:37;;;;;;;6.07;3.00;;;16.80;99.90;;;;;;5060618;28;20635;-92
2021/06/21 02:55:12;;;;;;;3.80;2.07;;;16.70;99.90;;;;;;5059762;28;20987;-92
2021/06/21 02:57:49;;;;;;;7.30;3.00;;;16.70;99.90;;;;;;5059418;28;20672;-92
2021/06/21 03:00:16;;;;;;;10.40;2.20;;;16.70;99.90;;;;;;5061305;28;20739;-91
2021/06/21 03:02:45;;;;;;;12.17;2.53;;;16.70;99.90;;;;;;5062003;28;20635;-93
2021/06/21 03:05:15;;;;;;;2.90;2.03;;;16.50;99.90;;;;;;5066197;28;20609;-92
2021/06/21 03:07:49;;;;;;;5.43;2.10;;;16.50;99.90;;;;;;5069212;28;20668;-92
2021/06/21 03:10:17;;;;;;;9.40;2.80;;;16.50;99.90;;;;;;5083822;28;20592;-93
2021/06/21 03:12:47;;;;;;;9.40;2.50;;;16.50;99.90;;;;;;5084322;28;20584;-92
2021/06/21 03:15:24;;;;;;;5.33;2.93;;;16.60;99.90;;;;;;5083791;28;20642;-92
2021/06/21 03:17:53;;;;;;;9.00;2.67;;;16.60;99.90;;;;;;5077575;28;20678;-93
2021/06/21 03:20:21;;;;;;;7.63;3.10;;;16.60;99.90;;;;;;5083909;28;20614;-92
2021/06/21 03:22:54;;;;;;;10.90;2.10;;;16.50;99.90;;;;;;5083266;28;20728;-93
2021/06/21 03:25:26;;;;;;;9.10;2.63;;;16.50;99.90;;;;;;5084551;28;21171;-92
2021/06/21 03:27:53;;;;;;;8.27;3.07;;;16.50;99.90;;;;;;5065739;28;20899;-92
2021/06/21 03:30:23;;;;;;;9.63;2.60;;;16.60;99.90;;;;;;5063428;28;21110;-92
2021/06/21 03:32:52;;;;;;;7.83;2.50;;;16.60;99.90;;;;;;5063992;28;20711;-91
2021/06/21 03:35:20;;;;;;;8.83;2.67;;;16.60;99.90;;;;;;5066315;28;20625;-91
2021/06/21 03:37:48;;;;;;;7.10;2.33;;;16.70;99.90;;;;;;5068183;28;20673;-92
2021/06/21 03:40:17;;;;;;;6.30;2.43;;;16.60;99.90;;;;;;5088136;28;20649;-91
2021/06/21 03:42:44;;;;;;;6.20;2.60;;;16.60;99.90;;;;;;5086476;28;20641;-92
2021/06/21 03:45:13;;;;;;;10.23;3.17;;;16.70;99.90;;;;;;5089655;28;20636;-91
2021/06/21 03:47:41;;;;;;;6.20;2.47;;;16.80;99.90;;;;;;5085409;28;20641;-92
2021/06/21 03:50:11;;;;;;;7.80;2.30;;;16.80;99.90;;;;;;5085134;28;20606;-91
2021/06/21 03:52:38;;;;;;;7.93;2.90;;;16.90;99.90;;;;;;5084756;28;20655;-92
2021/06/21 03:55:09;;;;;;;9.43;2.80;;;16.90;99.90;;;;;;5078823;28;20605;-91
2021/06/21 03:57:39;;;;;;;10.07;3.37;;;16.90;99.90;;;;;;5072309;28;20674;-90
2021/06/21 04:00:09;;;;;;;9.80;3.07;;;16.90;99.90;;;;;;5075373;28;20668;-91
2021/06/21 04:02:36;;;;;;;7.40;2.97;;;16.90;99.90;;;;;;5069365;28;20660;-91
2021/06/21 04:05:04;;;;;;;6.50;2.57;;;17.00;99.90;;;;;;5063042;28;20652;-91
2021/06/21 04:07:32;;;;;;;11.07;2.60;;;17.00;99.90;;;;;;5070976;28;20637;-90
2021/06/21 04:09:59;;;;;;;7.90;2.70;;;17.10;99.90;;;;;;5064492;28;21030;-90
2021/06/21 04:12:27;;;;;;;9.67;2.77;;;17.10;99.90;;;;;;5058197;28;20660;-89
2021/06/21 04:14:56;;;;;;;7.50;3.17;;;17.20;99.90;;;;;;5059909;28;20706;-89
2021/06/21 04:17:24;;;;;;;6.40;2.57;;;17.20;99.90;;;;;;5060226;28;20963;-88
2021/06/21 04:19:51;;;;;;;6.80;2.40;;;17.20;99.90;;;;;;5062707;28;21026;-90
2021/06/21 04:22:19;;;;;;;13.77;3.27;;;17.30;99.90;;;;;;5065155;28;20656;-90
2021/06/21 04:24:46;;;;;;;8.70;3.20;;;17.30;99.90;;;;;;5070507;28;20640;-90
2021/06/21 04:27:14;;;;;;;10.57;2.43;;;17.40;99.90;;;;;;5044140;28;21032;-89
2021/06/21 04:29:41;;;;;;;11.00;3.20;;;17.40;99.90;;;;;;5061417;28;20652;-89
2021/06/21 04:32:12;;;;;;;5.80;2.30;;;17.40;99.90;;;;;;5060292;28;20648;-89
2021/06/21 04:34:40;;;;;;;5.20;2.70;;;17.50;99.90;;;;;;5058530;28;20637;-89
2021/06/21 04:37:07;;;;;;;7.40;2.27;;;17.60;99.90;;;;;;5044617;28;20628;-90
2021/06/21 04:39:34;;;;;;;5.50;2.60;;;17.60;99.90;;;;;;5062695;28;20744;-89
2021/06/21 04:42:01;;;;;;;7.77;2.40;;;17.60;99.90;;;;;;5060749;28;20655;-89
2021/06/21 04:44:29;;;;;;;7.97;3.33;;;17.70;99.90;;;;;;5062945;28;21016;-90
2021/06/21 04:46:57;;;;;;;8.67;2.70;;;17.70;99.90;;;;;;5058929;28;20621;-90
2021/06/21 04:49:25;;;;;;;7.50;2.30;;;17.70;99.90;;;;;;5059125;28;21027;-90
2021/06/21 04:51:52;;;;;;;6.20;1.53;;;17.70;99.90;;;;;;5062100;28;20643;-91
2021/06/21 04:54:20;;;;;;;12.30;2.70;;;17.50;99.90;;;;;;5061643;28;20730;-90
2021/06/21 04:56:47;;;;;;;9.37;2.40;;;17.60;99.90;;;;;;5060405;28;20629;-90
2021/06/21 04:59:14;;;;;;;6.30;2.77;;;17.60;99.90;;;;;;5063308;28;20758;-90
2021/06/21 05:01:43;;;;;;;12.97;2.97;;;17.60;99.90;;;;;;5064263;28;20640;-90
2021/06/21 05:04:11;;;;;;;3.20;1.77;;;17.60;99.90;;;;;;5061492;28;20624;-89
2021/06/21 05:06:39;;;;;;;4.20;1.97;;;17.60;99.90;;;;;;5064618;28;21124;-89
2021/06/21 05:09:08;;;;;;;6.20;2.17;;;17.50;99.90;;;;;;5064923;28;20616;-89
2021/06/21 05:11:37;;;;;;;4.87;2.63;;;17.60;99.90;;;;;;5064170;28;21062;-89
2021/06/21 05:14:05;;;;;;;7.00;2.50;;;17.80;99.90;;;;;;5075749;28;20664;-88
2021/06/21 05:16:32;;;;;;;6.40;1.30;;;17.80;99.90;;;;;;5060280;28;20660;-88
2021/06/21 05:18:59;;;;;;;5.83;2.17;;;17.90;99.90;;;;;;5063550;28;20622;-89
2021/06/21 05:21:26;;;;;;;4.93;1.77;;;18.00;99.90;;;;;;5059424;28;20640;-88
2021/06/21 05:23:54;;;;;;;6.70;1.63;;;18.10;99.90;;;;;;5063441;28;20629;-90
2021/06/21 05:26:21;;;;;;;4.87;1.40;;;18.10;99.90;;;;;;5063143;28;20653;-89
2021/06/21 05:28:48;;;;;;;8.00;2.37;;;18.10;99.90;;;;;;5068819;28;20642;-90
2021/06/21 05:31:16;;;;;;;4.17;1.57;;;18.20;99.90;;;;;;5066259;28;20629;-90
2021/06/21 05:33:44;;;;;;;4.70;1.70;;;18.20;99.90;;;;;;5063463;28;20653;-88
2021/06/21 05:36:11;;;;;;;8.17;2.77;;;18.30;99.90;;;;;;5060785;28;20690;-88
2021/06/21 05:38:38;;;;;;;4.03;1.67;;;18.20;99.90;;;;;;5062437;28;20661;-88
2021/06/21 05:41:06;;;;;;;5.60;1.50;;;18.30;99.90;;;;;;5062735;28;20618;-88
2021/06/21 05:43:33;;;;;;;5.97;2.30;;;18.40;99.90;;;;;;5061202;28;21110;-88
2021/06/21 05:46:01;;;;;;;8.60;3.17;;;18.50;99.90;;;;;;5057090;28;20620;-88
2021/06/21 05:48:27;;;;;;;4.70;1.63;;;18.60;99.90;;;;;;5053640;28;20992;-88
2021/06/21 05:50:54;;;;;;;9.27;2.20;;;18.70;99.90;;;;;;5059832;28;20625;-89
2021/06/21 05:53:21;;;;;;;6.23;2.33;;;18.70;99.90;;;;;;5060212;28;21032;-88
2021/06/21 05:55:48;;;;;;;5.50;2.90;;;18.90;99.90;;;;;;5059358;28;20939;-90
2021/06/21 05:58:16;;;;;;;6.43;2.07;;;19.10;99.90;;;;;;5061428;28;21211;-92
2021/06/21 06:00:43;;;;;;;5.60;1.70;;;19.30;99.90;;;;;;5060673;28;20633;-87
2021/06/21 06:03:11;;;;;;;11.43;2.93;;;19.30;99.90;;;;;;5061163;28;20653;-89
2021/06/21 06:05:38;;;;;;;7.07;2.00;;;19.40;99.90;;;;;;5058949;28;20633;-90
2021/06/21 06:08:05;;;;;;;6.17;2.23;;;19.40;99.90;;;;;;5059511;28;20649;-89
2021/06/21 06:10:33;;;;;;;5.97;1.83;;;19.40;99.90;;;;;;5058443;28;20653;-89
2021/06/21 06:13:00;;;;;;;3.63;1.83;;;19.50;99.90;;;;;;5060121;28;20982;-89
2021/06/21 06:15:29;;;;;;;8.97;1.57;;;19.70;99.90;;;;;;5058621;28;20719;-90
2021/06/21 06:17:56;;;;;;;4.93;1.87;;;19.70;99.90;;;;;;5057671;28;20662;-90
2021/06/21 06:20:23;;;;;;;7.53;2.10;;;19.90;99.90;;;;;;5061880;28;20846;-90
2021/06/21 06:22:49;;;;;;;4.20;2.00;;;19.90;99.90;;;;;;5060899;28;20613;-90
2021/06/21 06:25:16;;;;;;;4.77;1.87;;;20.10;99.90;;;;;;5062799;28;20622;-89
2021/06/21 06:27:44;;;;;;;7.83;1.50;;;20.20;99.90;;;;;;5060525;28;21007;-90
2021/06/21 06:30:13;;;;;;;6.90;1.90;;;20.20;99.90;;;;;;5061274;28;20963;-90
2021/06/21 06:32:43;;;;;;;7.53;2.23;;;20.30;99.90;;;;;;5056717;28;20636;-89
2021/06/21 06:35:11;;;;;;;5.80;2.10;;;20.30;99.90;;;;;;5059270;28;20922;-90
2021/06/21 06:37:38;;;;;;;8.23;2.33;;;20.30;99.90;;;;;;5059776;28;20637;-89
2021/06/21 06:40:06;;;;;;;5.97;2.03;;;20.30;99.90;;;;;;5059762;28;20657;-89
2021/06/21 06:42:33;;;;;;;6.00;2.00;;;20.40;99.90;;;;;;5059455;28;20978;-89
2021/06/21 06:45:00;;;;;;;5.20;2.00;;;20.30;99.90;;;;;;5055680;28;20640;-89
2021/06/21 06:47:26;;;;;;;7.67;2.27;;;20.40;99.90;;;;;;5056703;28;20664;-89
2021/06/21 06:49:56;;;;;;;8.07;1.63;;;20.50;99.90;;;;;;5055889;28;20626;-89
2021/06/21 06:52:23;;;;;;;4.63;2.00;;;20.60;99.90;;;;;;5058326;28;20635;-90
2021/06/21 06:57:32;;;;;;;3.60;2.00;;;20.80;99.90;;;;;;5055469;28;21013;-90
2021/06/21 06:59:59;;;;;;;11.27;2.53;;;20.90;99.90;;;;;;5058256;28;20656;-90
2021/06/21 07:02:26;;;;;;;4.00;1.80;;;20.80;99.90;;;;;;5058548;28;21257;-89
2021/06/21 07:04:55;;;;;;;3.90;2.00;;;20.90;99.90;;;;;;5059986;28;20596;-89
2021/06/21 07:07:24;;;;;;;2.70;1.67;;;20.90;99.90;;;;;;5059708;28;20682;-90
2021/06/21 07:09:50;;;;;;;4.30;1.77;;;20.80;99.90;;;;;;5059972;28;20632;-90
2021/06/21 07:12:17;;;;;;;4.67;2.40;;;21.00;99.90;;;;;;5062397;28;20617;-90
2021/06/21 07:14:44;;;;;;;4.93;1.90;;;21.10;99.90;;;;;;5059745;28;20706;-90
2021/06/21 07:17:11;;;;;;;4.00;1.97;;;21.30;99.90;;;;;;5059702;28;20806;-90
2021/06/21 07:19:38;;;;;;;9.43;2.17;;;21.50;99.90;;;;;;5059979;28;21001;-91
2021/06/21 07:22:07;;;;;;;3.20;1.10;;;21.70;99.90;;;;;;5043421;28;20657;-90
2021/06/21 07:24:34;;;;;;;10.30;1.40;;;21.90;99.90;;;;;;5058193;28;21126;-90
2021/06/21 07:27:01;;;;;;;4.40;1.20;;;22.00;99.90;;;;;;5062703;28;21278;-90
2021/06/21 07:29:28;;;;;;;5.33;1.10;;;22.10;99.90;;;;;;5059328;28;20976;-90
2021/06/21 07:31:55;;;;;;;3.67;1.10;;;22.20;99.90;;;;;;5059705;28;20629;-90
2021/06/21 07:34:22;;;;;;;5.27;1.47;;;22.30;99.90;;;;;;5060967;28;20648;-90
2021/06/21 07:36:49;;;;;;;5.23;1.60;;;22.30;99.90;;;;;;5057560;28;20621;-90
2021/06/21 07:39:17;;;;;;;7.30;1.43;;;22.40;99.90;;;;;;5060592;28;21348;-90
2021/06/21 07:41:44;;;;;;;4.20;1.67;;;22.40;99.90;;;;;;5059835;28;21163;-90
2021/06/21 07:44:11;;;;;;;3.80;1.53;;;22.50;99.90;;;;;;5061725;28;21126;-91
2021/06/21 07:46:37;;;;;;;2.40;1.20;;;22.60;99.90;;;;;;5060582;28;20625;-90
2021/06/21 07:49:04;;;;;;;2.97;1.10;;;22.70;99.90;;;;;;5062179;28;20633;-90
2021/06/21 07:51:31;;;;;;;4.60;1.10;;;22.80;99.90;;;;;;5061586;28;20648;-90
2021/06/21 07:53:58;;;;;;;5.37;1.50;;;22.90;99.90;;;;;;5062618;28;20649;-91
2021/06/21 07:56:27;;;;;;;3.97;1.60;;;23.00;99.90;;;;;;5062537;28;20643;-90
2021/06/21 07:58:55;;;;;;;3.90;1.40;;;23.00;99.90;;;;;;5058598;28;21178;-90
2021/06/21 08:01:22;;;;;;;3.57;2.23;;;23.10;99.90;;;;;;5064071;28;20967;-90
2021/06/21 08:03:49;;;;;;;2.97;1.10;;;23.10;99.90;;;;;;5062996;28;20725;-90
2021/06/21 08:06:16;;;;;;;2.87;1.00;;;23.00;99.90;;;;;;5064074;28;20683;-90
2021/06/21 08:08:43;;;;;;;3.87;1.23;;;23.20;99.90;;;;;;5059495;28;20633;-91
2021/06/21 08:11:12;;;;;;;3.30;1.20;;;23.20;99.90;;;;;;5058437;28;20637;-90
2021/06/21 08:13:40;;;;;;;3.07;1.40;;;23.20;99.90;;;;;;5060085;28;20705;-89
2021/06/21 08:16:12;;;;;;;2.30;1.03;;;23.30;99.90;;;;;;5045742;28;20661;-90
2021/06/21 08:18:39;;;;;;;4.40;1.67;;;23.20;99.90;;;;;;5064140;28;20671;-90
2021/06/21 08:21:06;;;;;;;4.23;1.53;;;23.30;99.90;;;;;;5061085;28;20662;-90
2021/06/21 08:23:34;;;;;;;3.23;2.00;;;23.40;99.90;;;;;;5067580;28;20676;-90
2021/06/21 08:26:01;;;;;;;2.40;1.03;;;23.40;99.90;;;;;;5055050;28;20633;-90
2021/06/21 08:28:29;;;;;;;3.70;2.73;;;23.50;99.90;;;;;;5063694;28;20628;-91
2021/06/21 08:31:02;;;;;;;5.90;2.20;;;23.40;99.90;;;;;;5059150;28;20620;-90
2021/06/21 08:33:29;;;;;;;12.20;6.53;;;23.50;99.90;;;;;;5066644;28;21026;-91
2021/06/21 08:35:56;;;;;;;3.50;3.20;;;23.70;99.90;;;;;;5061239;28;20617;-90
2021/06/21 08:38:23;;;;;;;3.70;1.70;;;23.60;99.90;;;;;;5065961;28;20640;-91
2021/06/21 08:40:51;;;;;;;2.27;1.13;;;23.60;99.90;;;;;;5068270;28;20770;-91
2021/06/21 08:43:19;;;;;;;4.03;1.77;;;23.70;99.90;;;;;;5065062;28;21004;-92
2021/06/21 08:45:46;;;;;;;3.77;1.73;;;23.70;99.90;;;;;;5062511;28;20635;-92
2021/06/21 08:48:15;;;;;;;4.27;1.23;;;23.60;99.90;;;;;;5060769;28;20632;-91
2021/06/21 08:50:42;;;;;;;6.23;1.30;;;23.70;99.90;;;;;;5064049;28;20625;-91
2021/06/21 08:53:10;;;;;;;7.63;1.30;;;23.60;99.90;;;;;;5065395;28;20656;-91
2021/06/21 08:55:38;;;;;;;4.47;1.33;;;23.70;99.90;;;;;;5064545;28;20639;-91
2021/06/21 08:58:05;;;;;;;2.20;1.30;;;23.70;99.90;;;;;;5068412;28;20625;-91
2021/06/21 09:00:32;;;;;;;4.43;1.50;;;23.70;99.90;;;;;;5066074;28;20649;-91
2021/06/21 09:03:02;;;;;;;3.10;1.10;;;23.80;99.90;;;;;;5067306;28;20653;-91
2021/06/21 09:05:32;;;;;;;3.23;1.63;;;23.90;99.90;;;;;;5064731;28;21159;-92
2021/06/21 09:08:04;;;;;;;3.60;1.50;;;24.10;99.90;;;;;;5065307;28;20670;-91
2021/06/21 09:10:34;;;;;;;2.17;1.37;;;24.30;99.90;;;;;;5064976;28;20625;-91
2021/06/21 09:13:06;;;;;;;3.50;2.20;;;24.30;99.90;;;;;;5063658;28;20661;-91
2021/06/21 09:15:35;;;;;;;3.73;1.40;;;24.40;99.90;;;;;;5065887;28;20625;-91
2021/06/21 09:18:35;;;;;;;6.07;1.30;;;24.40;99.90;;;;;;5066192;28;20639;-90
2021/06/21 09:21:27;;;;;;;2.73;1.23;;;24.40;99.90;;;;;;5061092;28;20895;-91
2021/06/21 09:23:56;;;;;;;6.53;2.20;;;24.50;99.90;;;;;;5061584;28;20650;-91
2021/06/21 09:26:26;;;;;;;6.80;1.40;;;24.60;99.50;;;;;;5033225;28;20621;-91
2021/06/21 09:28:53;;;;;;;3.10;2.30;;;24.60;99.90;;;;;;5063814;28;20632;-91
2021/06/21 09:31:23;;;;;;;3.20;1.50;;;24.50;99.90;;;;;;5067037;28;20655;-91
2021/06/21 09:33:51;;;;;;;3.13;1.33;;;24.70;99.90;;;;;;5063536;28;20736;-92
2021/06/21 09:36:29;;;;;;;2.23;1.60;;;24.90;99.90;;;;;;5065585;28;20632;-92
2021/06/21 09:39:23;;;;;;;5.33;1.60;;;24.90;99.90;;;;;;5062383;28;20644;-91
2021/06/21 09:42:08;;;;;;;4.80;1.97;;;24.90;99.90;;;;;;5063566;28;20670;-91
2021/06/21 09:44:38;;;;;;;4.63;1.23;;;24.90;99.90;;;;;;5061253;28;20617;-91
2021/06/21 09:47:24;;;;;;;2.63;1.20;;;25.10;99.90;;;;;;5062692;28;20628;-90
2021/06/21 09:50:16;;;;;;;4.90;1.60;;;25.00;99.50;;;;;;5061667;28;20621;-91
2021/06/21 09:52:51;;;;;;;3.07;0.90;;;25.10;99.80;;;;;;5057419;28;20680;-89
2021/06/21 09:55:29;;;;;;;5.20;1.43;;;25.00;99.90;;;;;;5064672;28;20735;-89
2021/06/21 09:58:08;;;;;;;3.17;1.30;;;25.40;99.90;;;;;;5064131;28;21537;-90
2021/06/21 10:00:36;;;;;;;4.60;1.57;;;25.60;99.90;;;;;;5061016;28;21553;-89
2021/06/21 10:03:18;;;;;;;3.27;1.30;;;25.30;99.90;;;;;;5060305;28;21227;-89
2021/06/21 10:06:02;;;;;;;3.63;1.57;;;25.40;99.00;;;;;;5055222;28;21045;-91
2021/06/21 10:08:43;;;;;;;1.50;1.40;;;25.20;98.30;;;;;;5061501;28;21187;-91
2021/06/21 10:11:28;;;;;;;3.87;1.50;;;25.50;97.80;;;;;;5058164;28;20643;-91
2021/06/21 10:13:57;;;;;;;5.10;1.70;;;25.70;97.60;;;;;;5061639;28;20679;-91
2021/06/21 10:16:25;;;;;;;4.80;1.53;;;25.70;97.50;;;;;;5064561;28;20625;-92
2021/06/21 10:18:55;;;;;;;3.70;1.23;;;25.90;97.00;;;;;;5064320;28;20696;-91
2021/06/21 10:21:22;;;;;;;1.40;1.30;;;26.10;96.90;;;;;;5054249;28;20673;-89
2021/06/21 10:23:51;;;;;;;2.73;1.00;;;26.20;96.70;;;;;;5056457;28;20978;-89
2021/06/21 10:26:18;;;;;;;2.33;1.40;;;26.50;96.70;;;;;;5060426;28;20641;-90
2021/06/21 10:28:47;;;;;;;6.20;2.77;;;26.60;95.90;;;;;;5060782;28;21096;-90
2021/06/21 10:31:15;;;;;;;1.77;1.40;;;26.70;95.40;;;;;;5062643;28;20656;-91
2021/06/21 10:33:42;;;;;;;2.40;1.53;;;26.90;95.60;;;;;;5061649;28;20637;-90
2021/06/21 10:36:09;;;;;;;1.97;1.30;;;27.10;95.30;;;;;;5060396;28;20992;-91
2021/06/21 10:38:36;;;;;;;2.60;1.27;;;27.00;94.80;;;;;;5060032;28;20630;-89
2021/06/21 10:41:07;;;;;;;3.20;2.80;;;27.30;95.30;;;;;;5058124;28;21240;-90
2021/06/21 10:43:53;;;;;;;7.47;1.47;;;27.00;95.00;;;;;;5061344;28;20720;-89
2021/06/21 10:46:25;;;;;;;2.10;1.40;;;26.80;94.80;;;;;;5051921;28;21496;-90
2021/06/21 10:49:43;;;;;;;1.67;1.37;;;26.50;95.20;;;;;;5059139;28;21160;-88
2021/06/21 10:52:34;;;;;;;3.40;1.53;;;27.00;95.70;;;;;;5066286;28;20703;-91
2021/06/21 10:55:33;;;;;;;2.67;1.73;;;27.20;94.30;;;;;;5062344;28;20649;-90
2021/06/21 10:58:04;;;;;;;1.87;1.60;;;27.90;92.90;;;;;;5050364;28;21243;-88
2021/06/21 11:00:33;;;;;;;4.70;1.60;;;28.20;93.20;;;;;;5060143;28;20648;-91
2021/06/21 11:03:01;;;;;;;4.70;2.20;;;27.90;92.90;;;;;;5038142;28;20740;-91
2021/06/21 11:05:38;;;;;;;2.70;1.57;;;28.00;92.70;;;;;;5060528;28;20631;-91
2021/06/21 11:08:16;;;;;;;3.83;1.70;;;28.20;93.10;;;;;;5056243;28;20792;-90
2021/06/21 11:10:44;;;;;;;2.13;1.50;;;27.90;93.10;;;;;;5065984;28;20688;-91
2021/06/21 11:13:43;;;;;;;4.87;1.40;;;28.30;92.20;;;;;;5063422;28;21275;-91
2021/06/21 11:16:24;;;;;;;2.30;1.40;;;28.60;91.90;;;;;;5053923;28;21265;-91
2021/06/21 11:19:29;;;;;;;4.87;1.57;;;28.90;91.70;;;;;;5058518;28;21281;-90
2021/06/21 11:21:58;;;;;;;2.97;1.90;;;28.50;91.60;;;;;;5052427;28;20664;-90
2021/06/21 11:24:50;;;;;;;1.97;1.60;;;28.60;91.80;;;;;;5058447;28;20633;-91
2021/06/21 11:27:18;;;;;;;3.27;1.43;;;27.50;92.80;;;;;;5050432;28;20672;-91
2021/06/21 11:29:48;;;;;;;3.87;1.30;;;27.70;92.70;;;;;;5060302;28;20641;-91
2021/06/21 11:32:17;;;;;;;2.40;1.20;;;28.20;92.70;;;;;;5056919;28;20618;-91
2021/06/21 11:34:47;;;;;;;2.50;1.50;;;28.40;91.90;;;;;;5057659;28;20621;-91
2021/06/21 11:37:35;;;;;;;2.30;1.53;;;28.70;91.40;;;;;;5061960;28;20698;-90
2021/06/21 11:40:28;;;;;;;1.93;1.63;;;28.70;90.30;;;;;;5055971;28;20625;-89
2021/06/21 11:43:18;;;;;;;3.20;2.00;;;28.40;90.80;;;;;;5055626;28;20636;-91
2021/06/21 11:45:58;;;;;;;3.70;1.63;;;27.90;90.80;;;;;;5059668;28;20637;-92
2021/06/21 11:48:27;;;;;;;4.33;1.80;;;28.20;90.70;;;;;;5056649;28;20660;-91
2021/06/21 11:50:55;;;;;;;3.13;1.80;;;28.70;91.40;;;;;;5060943;28;21314;-92
2021/06/21 11:53:24;;;;;;;3.27;1.67;;;29.00;89.00;;;;;;5064946;28;21084;-91
2021/06/21 11:55:52;;;;;;;7.57;1.80;;;29.00;87.00;;;;;;5066619;28;20633;-92
2021/06/21 11:58:29;;;;;;;4.43;1.60;;;29.00;87.80;;;;;;5065268;28;20629;-90
2021/06/21 12:00:58;;;;;;;5.53;1.80;;;28.40;89.00;;;;;;5060322;28;20676;-91
2021/06/21 12:03:33;;;;;;;2.30;1.60;;;28.30;87.90;;;;;;5063200;28;21210;-91
2021/06/21 12:06:00;;;;;;;2.30;1.50;;;27.80;90.30;;;;;;5046064;28;20659;-92
2021/06/21 12:08:35;;;;;;;3.40;1.77;;;28.00;90.90;;;;;;5064298;28;21272;-91
2021/06/21 12:11:14;;;;;;;4.00;1.30;;;28.10;89.60;;;;;;5063383;28;20712;-91
2021/06/21 12:13:43;;;;;;;2.03;1.27;;;28.20;89.10;;;;;;5061757;28;20632;-91
2021/06/21 12:16:16;;;;;;;3.23;1.60;;;28.20;88.60;;;;;;5061127;28;21023;-91
2021/06/21 12:18:50;;;;;;;2.80;1.50;;;28.20;88.90;;;;;;5065200;28;20624;-92
2021/06/21 12:21:32;;;;;;;2.33;1.53;;;28.20;90.80;;;;;;5062512;28;20668;-92
2021/06/21 12:24:13;;;;;;;3.93;1.23;;;28.40;90.50;;;;;;5059017;28;21194;-91
2021/06/21 12:26:40;;;;;;;2.63;1.70;;;28.40;90.00;;;;;;5062660;28;20643;-91
2021/06/21 12:29:28;;;;;;;3.90;1.70;;;28.00;89.50;;;;;;5061275;28;20625;-92
2021/06/21 12:32:02;;;;;;;2.60;1.50;;;28.40;88.80;;;;;;5063685;28;20697;-92
2021/06/21 12:34:51;;;;;;;4.43;1.70;;;28.90;88.50;;;;;;5045851;28;20675;-92
2021/06/21 12:37:24;;;;;;;2.30;1.30;;;29.30;87.50;;;;;;5061766;28;20621;-92
2021/06/21 12:39:52;;;;;;;3.00;1.57;;;29.00;88.00;;;;;;5067656;28;20630;-93
2021/06/21 12:42:21;;;;;;;3.73;1.57;;;30.00;89.30;;;;;;5061893;28;20650;-92
2021/06/21 12:44:50;;;;;;;2.93;2.10;;;30.50;85.80;;;;;;5044566;28;20702;-92
2021/06/21 12:47:21;;;;;;;2.13;1.70;;;30.20;86.00;;;;;;5061053;28;20645;-92
2021/06/21 12:49:49;;;;;;;5.73;1.60;;;29.70;86.50;;;;;;5057913;28;20648;-92
2021/06/21 12:52:20;;;;;;;2.67;1.33;;;29.10;85.20;;;;;;5062064;28;20819;-91
2021/06/21 12:54:48;;;;;;;3.43;1.50;;;29.80;84.10;;;;;;5057951;28;20590;-92
2021/06/21 12:57:16;;;;;;;3.07;1.50;;;31.10;81.80;;;;;;5062939;28;20983;-92
2021/06/21 12:59:43;;;;;;;4.00;1.90;;;31.20;80.40;;;;;;5058201;28;21168;-92
2021/06/21 13:02:22;;;;;;;4.60;1.80;;;30.40;81.60;;;;;;5060896;28;20663;-91
2021/06/21 13:05:02;;;;;;;2.10;1.40;;;29.90;84.50;;;;;;5058621;28;20633;-92
2021/06/21 13:07:29;;;;;;;2.67;1.87;;;29.50;84.30;;;;;;5064034;28;20704;-92